Time;durP1;ratioP1;P1;durP2;ratioP2;P2;SDS_P1;SDS_P2;PMS_P1;PMS_P2;Temp;Humidity;BMP_temperature;BMP_pressure;BME280_temperature;BME280_humidity;BME280_pressure;Samples;Min_cycle;Max_cycle;Signal;HPM_P1;HPM_P2
2023/08/22 00:02:25;;;;;;;6.57;4.13;;;16.40;99.90;;;;;;5038942;28;20645;-66
2023/08/22 00:04:51;;;;;;;10.50;4.63;;;16.40;99.90;;;;;;5033809;28;20043;-66
2023/08/22 00:07:17;;;;;;;9.73;5.50;;;16.40;99.90;;;;;;5035079;28;20033;-66
2023/08/22 00:09:42;;;;;;;7.72;5.10;;;16.40;99.90;;;;;;5031766;28;20033;-66
2023/08/22 00:12:08;;;;;;;5.50;4.40;;;16.40;99.90;;;;;;5034138;28;20327;-65
2023/08/22 00:14:34;;;;;;;9.32;5.43;;;16.40;99.90;;;;;;5034304;28;20049;-65
2023/08/22 00:17:00;;;;;;;7.22;5.10;;;16.40;99.90;;;;;;5034472;28;20132;-66
2023/08/22 00:19:25;;;;;;;7.90;4.88;;;16.40;99.90;;;;;;5046148;28;20029;-65
2023/08/22 00:21:51;;;;;;;10.40;5.70;;;16.40;99.90;;;;;;5048217;28;20041;-66
2023/08/22 00:24:16;;;;;;;7.32;5.03;;;16.40;99.90;;;;;;5040258;28;20073;-66
2023/08/22 00:26:42;;;;;;;8.90;4.90;;;16.40;99.90;;;;;;5044182;28;20038;-65
2023/08/22 00:29:07;;;;;;;6.53;5.07;;;16.40;99.90;;;;;;5031559;28;20038;-65
2023/08/22 00:31:33;;;;;;;7.25;5.20;;;16.40;99.90;;;;;;5033344;28;20041;-65
2023/08/22 00:34:01;;;;;;;7.13;5.07;;;16.40;99.90;;;;;;5044573;28;20093;-65
2023/08/22 00:36:27;;;;;;;8.07;5.22;;;16.40;99.90;;;;;;5045209;28;20473;-65
2023/08/22 00:38:52;;;;;;;7.95;5.13;;;16.40;99.90;;;;;;5045332;28;20104;-66
2023/08/22 00:41:18;;;;;;;6.78;5.15;;;16.40;99.90;;;;;;5038956;28;20445;-66
2023/08/22 00:43:43;;;;;;;6.65;4.80;;;16.30;99.90;;;;;;5046096;28;20056;-65
2023/08/22 00:46:09;;;;;;;9.10;5.32;;;16.30;99.90;;;;;;5033490;28;20060;-66
2023/08/22 00:48:35;;;;;;;7.45;5.07;;;16.40;99.90;;;;;;5031409;28;20592;-65
2023/08/22 00:51:01;;;;;;;8.45;4.80;;;16.40;99.90;;;;;;5029892;28;20111;-65
2023/08/22 00:53:27;;;;;;;9.45;5.60;;;16.40;99.90;;;;;;5038227;28;20473;-65
2023/08/22 00:55:53;;;;;;;6.85;5.03;;;16.40;99.90;;;;;;5040138;28;20075;-66
2023/08/22 00:58:18;;;;;;;8.15;5.55;;;16.40;99.90;;;;;;5047920;28;20045;-65
2023/08/22 01:00:44;;;;;;;10.23;5.90;;;16.40;99.90;;;;;;5048576;28;20025;-65
2023/08/22 01:03:10;;;;;;;7.68;5.70;;;16.40;99.90;;;;;;5041608;28;20198;-66
2023/08/22 01:05:46;;;;;;;9.32;5.78;;;16.40;99.90;;;;;;5046599;28;20465;-66
2023/08/22 01:08:18;;;;;;;6.70;5.10;;;16.40;99.90;;;;;;5039254;28;20036;-65
2023/08/22 01:10:50;;;;;;;8.93;5.30;;;16.40;99.90;;;;;;5043527;28;20044;-65
2023/08/22 01:13:33;;;;;;;7.93;4.80;;;16.40;99.90;;;;;;5036240;28;20044;-66
2023/08/22 01:15:59;;;;;;;6.82;4.68;;;16.50;99.90;;;;;;5035204;28;20124;-65
2023/08/22 01:18:26;;;;;;;7.63;4.38;;;16.50;99.90;;;;;;5037291;28;20037;-66
2023/08/22 01:20:51;;;;;;;8.18;4.60;;;16.50;99.90;;;;;;5034616;28;20135;-66
2023/08/22 01:23:17;;;;;;;7.85;4.63;;;16.50;99.90;;;;;;5042202;28;20430;-66
2023/08/22 01:25:43;;;;;;;6.35;4.25;;;16.50;99.90;;;;;;5047380;28;20036;-65
2023/08/22 01:28:40;;;;;;;8.52;4.72;;;16.50;99.90;;;;;;5028337;28;20513;-66
2023/08/22 01:31:25;;;;;;;5.90;3.65;;;16.50;99.90;;;;;;5037727;28;20037;-66
2023/08/22 01:34:15;;;;;;;5.35;3.75;;;16.50;99.90;;;;;;5033107;28;20119;-65
2023/08/22 01:36:42;;;;;;;5.07;4.05;;;16.40;99.90;;;;;;5030473;28;20262;-65
2023/08/22 01:39:09;;;;;;;6.93;4.13;;;16.40;99.90;;;;;;5036491;28;20395;-65
2023/08/22 01:41:37;;;;;;;9.25;4.43;;;16.40;99.90;;;;;;5031452;28;20033;-70
2023/08/22 01:44:03;;;;;;;5.18;3.67;;;16.40;99.90;;;;;;5036302;28;20366;-66
2023/08/22 01:46:30;;;;;;;7.45;3.80;;;16.50;99.90;;;;;;5041858;28;20048;-66
2023/08/22 01:48:55;;;;;;;6.93;3.95;;;16.40;99.90;;;;;;5041411;28;20037;-66
2023/08/22 01:51:21;;;;;;;7.80;3.92;;;16.40;99.90;;;;;;5040453;28;20060;-66
2023/08/22 01:53:47;;;;;;;6.50;3.67;;;16.40;99.90;;;;;;5038022;28;20054;-66
2023/08/22 01:56:12;;;;;;;5.57;3.72;;;16.40;99.90;;;;;;5036902;28;20060;-66
2023/08/22 01:58:38;;;;;;;5.90;3.45;;;16.40;99.90;;;;;;5034914;28;20477;-65
2023/08/22 02:01:13;;;;;;;6.60;4.18;;;16.40;99.90;;;;;;5039878;28;20048;-65
2023/08/22 02:03:40;;;;;;;6.85;3.95;;;16.40;99.90;;;;;;5047112;28;20037;-66
2023/08/22 02:06:06;;;;;;;6.05;4.00;;;16.40;99.90;;;;;;5043205;28;20075;-66
2023/08/22 02:08:31;;;;;;;10.20;4.00;;;16.40;99.90;;;;;;5035312;28;20068;-66
2023/08/22 02:10:57;;;;;;;5.07;3.30;;;16.40;99.90;;;;;;5029360;28;20041;-66
2023/08/22 02:13:22;;;;;;;5.72;3.80;;;16.30;99.90;;;;;;5030008;28;20084;-66
2023/08/22 02:15:48;;;;;;;9.48;4.03;;;16.30;99.90;;;;;;5038753;28;20041;-66
2023/08/22 02:18:14;;;;;;;6.15;3.65;;;16.30;99.90;;;;;;5044623;28;20062;-65
2023/08/22 02:20:39;;;;;;;6.15;4.15;;;16.20;99.90;;;;;;5038833;28;20144;-66
2023/08/22 02:23:05;;;;;;;7.55;3.55;;;16.20;99.90;;;;;;5036733;28;20029;-65
2023/08/22 02:25:32;;;;;;;5.82;3.30;;;16.20;99.90;;;;;;5044427;28;20512;-66
2023/08/22 02:27:58;;;;;;;8.45;3.63;;;16.20;99.90;;;;;;5030979;28;20044;-65
2023/08/22 02:30:24;;;;;;;5.47;3.65;;;16.20;99.90;;;;;;5036707;28;20075;-66
2023/08/22 02:32:50;;;;;;;5.20;3.05;;;16.20;99.90;;;;;;5038244;28;20526;-66
2023/08/22 02:35:15;;;;;;;5.07;3.20;;;16.10;99.90;;;;;;5048929;28;20048;-66
2023/08/22 02:37:41;;;;;;;6.07;3.13;;;16.10;99.90;;;;;;5040081;28;20033;-65
2023/08/22 02:40:09;;;;;;;4.43;3.33;;;16.10;99.90;;;;;;5029545;28;20029;-66
2023/08/22 02:42:35;;;;;;;6.65;3.40;;;16.10;99.90;;;;;;5033264;28;20426;-66
2023/08/22 02:45:02;;;;;;;8.02;3.38;;;16.20;99.90;;;;;;5038570;28;20094;-66
2023/08/22 02:47:28;;;;;;;5.22;3.00;;;16.20;99.90;;;;;;5045291;28;20108;-66
2023/08/22 02:49:54;;;;;;;5.35;3.60;;;16.20;99.90;;;;;;5033333;28;20071;-66
2023/08/22 02:52:19;;;;;;;5.95;3.67;;;16.20;99.90;;;;;;5038121;28;20087;-66
2023/08/22 02:54:45;;;;;;;6.88;3.60;;;16.20;99.90;;;;;;5043741;28;20056;-66
2023/08/22 02:57:11;;;;;;;7.25;3.78;;;16.20;99.90;;;;;;5037390;28;20033;-65
2023/08/22 02:59:36;;;;;;;7.40;4.00;;;16.20;99.90;;;;;;5035133;28;20442;-66
2023/08/22 03:02:03;;;;;;;5.85;3.90;;;16.20;99.90;;;;;;5036513;28;20848;-65
2023/08/22 03:04:29;;;;;;;3.70;3.30;;;16.10;99.90;;;;;;5045441;28;20033;-66
2023/08/22 03:06:54;;;;;;;4.18;3.58;;;16.10;99.90;;;;;;5038755;28;20098;-65
2023/08/22 03:09:21;;;;;;;6.97;3.63;;;16.10;99.90;;;;;;5033690;28;20052;-66
2023/08/22 03:11:47;;;;;;;6.85;3.45;;;16.00;99.90;;;;;;5036616;28;20038;-66
2023/08/22 03:14:13;;;;;;;5.70;3.47;;;16.00;99.90;;;;;;5045737;28;20056;-66
2023/08/22 03:16:38;;;;;;;5.88;3.28;;;16.00;99.90;;;;;;5036392;28;20612;-65
2023/08/22 03:19:04;;;;;;;6.80;3.60;;;15.90;99.90;;;;;;5036848;28;20045;-65
2023/08/22 03:21:29;;;;;;;5.75;3.22;;;16.00;99.90;;;;;;5033741;28;20044;-66
2023/08/22 03:23:55;;;;;;;8.18;3.50;;;16.00;99.90;;;;;;5040913;28;20040;-66
2023/08/22 03:26:21;;;;;;;5.43;3.30;;;16.00;99.90;;;;;;5031080;28;20101;-66
2023/08/22 03:28:46;;;;;;;5.18;2.90;;;16.00;99.90;;;;;;5047855;28;20083;-65
2023/08/22 03:31:12;;;;;;;4.53;3.50;;;15.90;99.90;;;;;;5031803;28;20453;-66
2023/08/22 03:33:37;;;;;;;4.72;2.90;;;16.00;99.90;;;;;;5039466;28;20369;-66
2023/08/22 03:36:03;;;;;;;6.18;3.38;;;16.00;99.90;;;;;;5048985;28;20372;-65
2023/08/22 03:38:29;;;;;;;6.88;3.42;;;15.90;99.90;;;;;;5045127;28;20033;-66
2023/08/22 03:40:56;;;;;;;6.45;3.20;;;15.80;99.90;;;;;;5044443;28;20044;-66
2023/08/22 03:43:22;;;;;;;5.53;2.97;;;15.70;99.90;;;;;;5048763;28;20049;-66
2023/08/22 03:45:48;;;;;;;5.90;3.20;;;15.70;99.90;;;;;;5027178;28;20402;-66
2023/08/22 03:48:13;;;;;;;5.93;3.70;;;15.60;99.90;;;;;;5044294;28;20069;-66
2023/08/22 03:50:40;;;;;;;4.47;2.70;;;15.50;99.90;;;;;;5042100;28;20063;-66
2023/08/22 03:53:06;;;;;;;5.15;3.22;;;15.40;99.90;;;;;;5043381;28;20118;-66
2023/08/22 03:55:32;;;;;;;4.85;2.83;;;15.40;99.90;;;;;;5040558;28;20319;-66
2023/08/22 03:57:58;;;;;;;6.18;2.67;;;15.30;99.90;;;;;;5044584;28;20149;-65
2023/08/22 04:00:25;;;;;;;8.68;3.40;;;15.20;99.90;;;;;;5038647;28;20174;-65
2023/08/22 04:02:55;;;;;;;7.20;3.05;;;15.20;99.90;;;;;;5040999;28;20033;-66
2023/08/22 04:05:21;;;;;;;6.53;3.38;;;15.10;99.90;;;;;;5035291;28;20466;-66
2023/08/22 04:07:47;;;;;;;6.03;3.08;;;15.10;99.90;;;;;;5030641;28;20033;-66
2023/08/22 04:10:12;;;;;;;5.18;3.45;;;15.10;99.90;;;;;;5041400;28;20083;-66
2023/08/22 04:12:38;;;;;;;9.95;4.05;;;15.10;99.90;;;;;;5046085;28;20382;-66
2023/08/22 04:15:04;;;;;;;5.65;3.08;;;15.00;99.90;;;;;;5046865;28;20125;-66
2023/08/22 04:17:29;;;;;;;6.95;3.10;;;15.00;99.90;;;;;;5048429;28;20097;-65
2023/08/22 04:19:55;;;;;;;7.97;3.40;;;15.00;99.90;;;;;;5045695;28;20025;-66
2023/08/22 04:22:20;;;;;;;6.15;3.35;;;15.00;99.90;;;;;;5048658;28;20163;-66
2023/08/22 04:24:46;;;;;;;6.00;3.50;;;15.00;99.90;;;;;;5029875;28;20060;-65
2023/08/22 04:27:11;;;;;;;5.53;2.90;;;14.90;99.90;;;;;;5037267;28;20108;-66
2023/08/22 04:29:37;;;;;;;6.05;3.47;;;14.80;99.90;;;;;;5051005;28;20128;-66
2023/08/22 04:32:03;;;;;;;7.55;3.30;;;14.80;99.90;;;;;;5040750;28;20037;-65
2023/08/22 04:34:29;;;;;;;8.95;3.10;;;14.80;99.90;;;;;;5047363;28;20073;-65
2023/08/22 04:36:55;;;;;;;4.95;3.38;;;14.80;99.90;;;;;;5043311;28;20048;-65
2023/08/22 04:39:21;;;;;;;4.55;3.42;;;14.80;99.90;;;;;;5049269;28;20037;-66
2023/08/22 04:41:46;;;;;;;4.38;2.85;;;14.70;99.90;;;;;;5032411;28;20044;-66
2023/08/22 04:44:12;;;;;;;5.03;3.22;;;14.60;99.90;;;;;;5037945;28;20037;-65
2023/08/22 04:46:37;;;;;;;4.82;3.25;;;14.60;99.90;;;;;;5042991;28;20063;-66
2023/08/22 04:49:03;;;;;;;6.22;3.58;;;14.50;99.90;;;;;;5034262;28;20041;-65
2023/08/22 04:51:28;;;;;;;8.30;3.92;;;14.50;99.90;;;;;;5029411;28;20438;-66
2023/08/22 04:53:54;;;;;;;6.72;4.15;;;14.50;99.90;;;;;;5049074;28;20175;-65
2023/08/22 04:56:20;;;;;;;5.68;4.32;;;14.50;99.90;;;;;;5033450;28;20408;-66
2023/08/22 04:58:46;;;;;;;8.48;4.20;;;14.40;99.90;;;;;;5036466;28;20052;-65
2023/08/22 05:01:12;;;;;;;10.07;3.95;;;14.40;99.90;;;;;;5039217;28;20037;-65
2023/08/22 05:03:37;;;;;;;8.50;3.83;;;14.50;99.90;;;;;;5032745;28;20036;-65
2023/08/22 05:06:03;;;;;;;6.53;3.88;;;14.50;99.90;;;;;;5046511;28;20099;-66
2023/08/22 05:08:28;;;;;;;7.43;4.38;;;14.50;99.90;;;;;;5029235;28;20056;-66
2023/08/22 05:10:54;;;;;;;9.70;4.50;;;14.50;99.90;;;;;;5043928;28;20140;-65
2023/08/22 05:13:20;;;;;;;7.53;3.92;;;14.50;99.90;;;;;;5041576;28;20396;-66
2023/08/22 05:15:45;;;;;;;5.30;3.85;;;14.50;99.90;;;;;;5046161;28;20499;-66
2023/08/22 05:18:11;;;;;;;6.95;4.05;;;14.50;99.90;;;;;;5037943;28;20475;-65
2023/08/22 05:20:38;;;;;;;8.38;4.50;;;14.50;99.90;;;;;;5032440;28;20029;-65
2023/08/22 05:23:04;;;;;;;6.60;4.28;;;14.60;99.90;;;;;;5020230;28;20124;-65
2023/08/22 05:25:29;;;;;;;7.60;3.67;;;14.60;99.90;;;;;;5043354;28;20148;-65
2023/08/22 05:27:55;;;;;;;6.10;3.95;;;14.70;99.90;;;;;;5039725;28;20463;-65
2023/08/22 05:30:21;;;;;;;6.40;3.90;;;14.70;99.90;;;;;;5033443;28;20409;-65
2023/08/22 05:32:47;;;;;;;6.38;4.10;;;14.80;99.90;;;;;;5041750;28;20366;-66
2023/08/22 05:35:12;;;;;;;7.63;4.20;;;14.80;99.90;;;;;;5038402;28;20040;-65
2023/08/22 05:37:38;;;;;;;7.28;4.50;;;14.80;99.90;;;;;;5040401;28;20037;-65
2023/08/22 05:40:06;;;;;;;9.48;4.82;;;14.80;99.90;;;;;;5037454;28;20067;-66
2023/08/22 05:42:32;;;;;;;6.85;4.43;;;14.80;99.90;;;;;;5019509;28;20059;-65
2023/08/22 05:44:58;;;;;;;9.57;5.25;;;14.90;99.90;;;;;;5041678;28;20048;-66
2023/08/22 05:47:23;;;;;;;9.55;5.47;;;14.90;99.90;;;;;;5041268;28;20433;-66
2023/08/22 05:49:49;;;;;;;13.20;6.20;;;15.00;99.90;;;;;;5025490;28;20049;-66
2023/08/22 05:52:15;;;;;;;17.85;8.15;;;15.20;99.90;;;;;;5030635;28;20099;-66
2023/08/22 05:54:41;;;;;;;19.35;8.50;;;15.30;99.90;;;;;;5041186;28;20224;-65
2023/08/22 05:57:07;;;;;;;16.30;9.23;;;15.50;99.90;;;;;;5041634;28;20397;-66
2023/08/22 05:59:32;;;;;;;22.60;12.43;;;15.70;99.90;;;;;;5036424;28;20029;-65
2023/08/22 06:01:58;;;;;;;20.73;12.23;;;15.90;99.90;;;;;;5036694;28;20377;-65
2023/08/22 06:04:23;;;;;;;20.90;12.05;;;16.10;99.90;;;;;;5044371;28;20052;-66
2023/08/22 06:06:50;;;;;;;23.88;13.50;;;16.20;99.90;;;;;;5038758;28;20072;-66
2023/08/22 06:09:15;;;;;;;21.98;12.73;;;16.50;99.90;;;;;;5032216;28;20041;-65
2023/08/22 06:11:41;;;;;;;23.63;12.25;;;16.70;99.90;;;;;;5032254;28;20087;-66
2023/08/22 06:14:07;;;;;;;18.77;11.93;;;16.90;99.90;;;;;;5032103;28;20369;-66
2023/08/22 06:16:32;;;;;;;16.98;10.30;;;17.20;99.90;;;;;;5040727;28;20085;-66
2023/08/22 06:18:59;;;;;;;18.00;10.50;;;17.50;99.90;;;;;;5041116;28;20053;-66
2023/08/22 06:21:25;;;;;;;20.15;10.30;;;17.80;99.90;;;;;;5042555;28;20029;-66
2023/08/22 06:23:50;;;;;;;15.93;9.27;;;18.00;99.90;;;;;;5034935;28;20130;-66
2023/08/22 06:26:16;;;;;;;20.60;10.27;;;18.20;99.90;;;;;;5037842;28;20783;-66
2023/08/22 06:28:41;;;;;;;16.88;9.90;;;18.30;99.90;;;;;;5044541;28;20074;-66
2023/08/22 06:31:07;;;;;;;14.48;8.85;;;18.40;99.90;;;;;;5027024;28;20633;-65
2023/08/22 06:33:32;;;;;;;14.85;8.35;;;18.50;99.90;;;;;;5031611;28;20038;-66
2023/08/22 06:35:58;;;;;;;16.13;9.43;;;18.50;99.90;;;;;;5026118;28;20039;-66
2023/08/22 06:38:25;;;;;;;13.40;8.18;;;18.50;99.90;;;;;;5041725;28;20052;-65
2023/08/22 06:40:50;;;;;;;14.10;8.27;;;18.50;99.90;;;;;;5035287;28;20037;-66
2023/08/22 06:43:16;;;;;;;13.65;7.38;;;18.50;99.90;;;;;;5046881;28;20033;-66
2023/08/22 06:45:42;;;;;;;12.85;7.18;;;18.50;99.90;;;;;;5041031;28;20060;-66
2023/08/22 06:48:08;;;;;;;15.57;8.20;;;18.50;99.90;;;;;;5037567;28;20052;-66
2023/08/22 06:50:34;;;;;;;11.65;7.00;;;18.50;99.90;;;;;;5030855;28;20179;-67
2023/08/22 06:53:00;;;;;;;11.95;7.75;;;18.70;99.90;;;;;;5042209;28;20161;-67
2023/08/22 06:55:26;;;;;;;12.10;7.10;;;18.80;99.90;;;;;;5035160;28;20049;-66
2023/08/22 06:57:51;;;;;;;15.35;6.82;;;19.10;99.90;;;;;;5025456;28;20041;-66
2023/08/22 07:00:18;;;;;;;12.38;6.60;;;19.50;99.90;;;;;;5041105;28;20370;-66
2023/08/22 07:02:45;;;;;;;14.63;5.93;;;19.80;99.90;;;;;;5027875;28;20055;-67
2023/08/22 07:05:12;;;;;;;7.55;5.18;;;20.30;99.90;;;;;;5013490;28;20046;-67
2023/08/22 07:07:38;;;;;;;11.10;5.60;;;20.50;99.90;;;;;;5019117;28;20051;-68
2023/08/22 07:10:06;;;;;;;13.63;5.22;;;20.80;99.90;;;;;;5041528;28;22605;-67
2023/08/22 07:12:32;;;;;;;9.55;5.15;;;20.90;99.90;;;;;;5018513;28;20040;-68
2023/08/22 07:14:58;;;;;;;8.13;4.35;;;21.20;99.90;;;;;;5031070;28;20041;-68
2023/08/22 07:17:23;;;;;;;11.20;4.07;;;21.60;99.90;;;;;;5045191;28;20052;-67
2023/08/22 07:19:49;;;;;;;8.18;3.97;;;21.90;98.10;;;;;;5008508;28;20053;-68
2023/08/22 07:22:14;;;;;;;7.82;4.10;;;22.10;96.40;;;;;;5039589;28;20037;-67
2023/08/22 07:24:40;;;;;;;6.90;3.30;;;22.00;95.20;;;;;;5027207;28;20041;-67
2023/08/22 07:27:06;;;;;;;7.13;2.95;;;22.20;93.80;;;;;;5036901;28;20433;-67
2023/08/22 07:29:32;;;;;;;4.88;2.95;;;22.10;92.60;;;;;;5041090;28;20170;-67
2023/08/22 07:31:59;;;;;;;3.92;2.35;;;22.20;91.40;;;;;;5042380;28;20506;-67
2023/08/22 07:34:25;;;;;;;5.07;2.80;;;22.30;90.50;;;;;;5029842;28;20053;-67
2023/08/22 07:36:52;;;;;;;3.88;2.22;;;22.60;89.30;;;;;;5035716;28;20034;-67
2023/08/22 07:39:18;;;;;;;4.00;2.30;;;23.00;86.60;;;;;;5031424;28;20471;-68
2023/08/22 07:41:44;;;;;;;3.45;1.90;;;23.10;85.00;;;;;;5029007;28;20044;-68
2023/08/22 07:44:09;;;;;;;2.97;2.03;;;23.40;83.60;;;;;;5034583;28;20041;-68
2023/08/22 07:46:35;;;;;;;3.90;1.88;;;23.40;82.30;;;;;;5037881;28;20033;-68
2023/08/22 07:49:00;;;;;;;3.70;2.20;;;23.50;81.00;;;;;;5038543;28;20053;-68
2023/08/22 07:51:26;;;;;;;6.65;1.98;;;23.60;80.00;;;;;;5028834;28;20053;-68
2023/08/22 07:53:52;;;;;;;4.63;2.30;;;23.50;78.80;;;;;;5037226;28;20049;-68
2023/08/22 07:56:18;;;;;;;4.97;2.35;;;23.40;77.80;;;;;;5029311;28;20045;-68
2023/08/22 07:58:43;;;;;;;3.95;2.25;;;23.40;77.30;;;;;;5043892;28;20064;-68
2023/08/22 08:01:09;;;;;;;6.50;1.92;;;23.40;77.00;;;;;;5047706;28;20059;-69
2023/08/22 08:03:35;;;;;;;6.35;2.25;;;23.40;76.60;;;;;;5042778;28;20045;-68
2023/08/22 08:06:00;;;;;;;4.82;2.25;;;23.30;76.00;;;;;;5029279;28;20072;-68
2023/08/22 08:08:26;;;;;;;4.75;2.00;;;23.50;75.60;;;;;;5035929;28;20089;-68
2023/08/22 08:10:52;;;;;;;7.40;2.63;;;23.50;75.40;;;;;;5048187;28;20072;-68
2023/08/22 08:13:17;;;;;;;8.18;2.58;;;23.50;75.40;;;;;;5048617;28;20041;-69
2023/08/22 08:15:43;;;;;;;6.40;2.08;;;23.50;75.00;;;;;;5014245;28;20155;-68
2023/08/22 08:18:10;;;;;;;6.00;2.38;;;23.60;74.40;;;;;;5037604;28;20037;-68
2023/08/22 08:20:36;;;;;;;2.88;1.90;;;23.70;73.80;;;;;;5033134;28;20045;-67
2023/08/22 08:23:02;;;;;;;4.28;1.90;;;23.90;73.50;;;;;;5032394;28;20072;-67
2023/08/22 08:25:29;;;;;;;6.75;2.30;;;24.10;72.70;;;;;;5027604;28;20049;-68
2023/08/22 08:27:55;;;;;;;6.40;2.45;;;24.20;72.00;;;;;;5043335;28;20041;-68
2023/08/22 08:30:21;;;;;;;3.70;1.50;;;24.20;71.20;;;;;;5038967;28;20048;-68
2023/08/22 08:32:46;;;;;;;5.03;1.77;;;24.20;70.80;;;;;;5047016;28;20448;-74
2023/08/22 08:35:12;;;;;;;3.65;1.55;;;24.40;70.30;;;;;;5046277;28;20415;-68
2023/08/22 08:37:38;;;;;;;4.15;1.73;;;24.50;69.90;;;;;;5042945;28;20094;-68
2023/08/22 08:40:07;;;;;;;5.57;2.00;;;24.40;69.60;;;;;;5041785;28;20104;-68
2023/08/22 08:42:36;;;;;;;3.97;2.30;;;24.70;69.30;;;;;;5042295;28;20144;-67
2023/08/22 08:45:05;;;;;;;3.78;1.83;;;24.80;68.90;;;;;;5034077;28;20378;-67
2023/08/22 08:47:34;;;;;;;3.80;1.60;;;25.20;68.80;;;;;;5047870;28;20469;-68
2023/08/22 08:50:06;;;;;;;3.70;1.40;;;25.30;68.20;;;;;;5021671;28;20179;-68
2023/08/22 08:52:32;;;;;;;4.80;1.70;;;25.30;67.40;;;;;;5043857;28;20388;-68
2023/08/22 08:55:00;;;;;;;3.55;1.38;;;25.20;65.70;;;;;;5047967;28;20071;-68
2023/08/22 08:57:29;;;;;;;4.18;1.60;;;25.00;62.90;;;;;;5046986;28;20135;-67
2023/08/22 08:59:55;;;;;;;4.13;1.33;;;24.90;64.20;;;;;;5046265;28;20049;-68
2023/08/22 09:02:20;;;;;;;3.70;1.10;;;24.90;64.00;;;;;;5029062;28;20049;-67
2023/08/22 09:04:46;;;;;;;1.98;0.63;;;24.90;63.60;;;;;;5041521;28;20073;-68
2023/08/22 09:07:13;;;;;;;4.93;1.33;;;25.30;62.70;;;;;;5045172;28;20127;-67
2023/08/22 09:09:38;;;;;;;4.13;0.85;;;25.40;61.30;;;;;;5038725;28;20132;-68
2023/08/22 09:12:09;;;;;;;5.95;0.90;;;25.30;60.50;;;;;;5037621;28;20870;-68
2023/08/22 09:14:41;;;;;;;3.17;1.30;;;25.30;58.70;;;;;;5044916;28;20091;-68
2023/08/22 09:17:06;;;;;;;2.13;1.08;;;25.20;57.90;;;;;;5045742;28;20071;-68
2023/08/22 09:19:33;;;;;;;3.13;1.00;;;25.10;60.00;;;;;;5050656;28;20128;-69
2023/08/22 09:22:00;;;;;;;4.43;1.15;;;25.10;60.10;;;;;;5049739;28;20137;-68
2023/08/22 09:24:29;;;;;;;1.80;1.10;;;25.30;60.50;;;;;;5046726;28;20033;-68
2023/08/22 09:26:56;;;;;;;2.63;1.08;;;25.00;60.40;;;;;;5048307;28;20842;-68
2023/08/22 09:29:29;;;;;;;1.67;1.02;;;25.00;60.90;;;;;;5045170;28;20048;-68
2023/08/22 09:32:00;;;;;;;3.63;1.20;;;24.80;60.80;;;;;;5048270;28;20051;-68
2023/08/22 09:34:26;;;;;;;2.75;1.10;;;24.80;61.20;;;;;;5040243;28;20040;-68
2023/08/22 09:36:53;;;;;;;3.67;1.20;;;24.80;60.30;;;;;;5028626;28;20064;-68
2023/08/22 09:39:19;;;;;;;3.90;1.00;;;24.80;60.00;;;;;;5030167;28;20064;-69
2023/08/22 09:41:45;;;;;;;2.83;1.35;;;25.20;58.70;;;;;;5030427;28;20501;-68
2023/08/22 09:44:11;;;;;;;3.30;1.00;;;25.40;57.70;;;;;;5038278;28;20052;-68
2023/08/22 09:46:41;;;;;;;3.53;1.15;;;25.40;57.00;;;;;;5031999;28;20045;-69
2023/08/22 09:49:11;;;;;;;2.75;1.10;;;25.70;56.90;;;;;;5032453;28;20087;-68
2023/08/22 09:51:37;;;;;;;;;;;25.80;56.30;;;;;;5040320;28;20056;-68
2023/08/22 09:54:05;;;;;;;2.15;0.80;;;25.80;56.20;;;;;;5041888;28;19981;-68
2023/08/22 09:56:31;;;;;;;1.73;0.73;;;25.50;56.50;;;;;;5039798;28;20033;-69
2023/08/22 09:59:02;;;;;;;2.85;0.70;;;25.50;56.30;;;;;;5033632;28;20564;-67
2023/08/22 10:01:29;;;;;;;1.38;0.80;;;25.30;56.00;;;;;;5031322;28;20091;-67
2023/08/22 10:03:56;;;;;;;2.30;1.10;;;25.30;55.80;;;;;;5035797;28;20060;-67
2023/08/22 10:06:30;;;;;;;2.80;0.70;;;25.50;55.80;;;;;;5042762;28;20067;-67
2023/08/22 10:08:57;;;;;;;2.30;0.80;;;25.70;55.60;;;;;;5047102;28;20044;-67
2023/08/22 10:11:25;;;;;;;1.70;0.98;;;25.70;55.70;;;;;;5046317;28;20061;-68
2023/08/22 10:13:52;;;;;;;2.95;1.05;;;25.40;55.20;;;;;;5047108;28;20045;-67
2023/08/22 10:16:18;;;;;;;2.65;0.80;;;25.50;55.30;;;;;;5046056;28;20160;-67
2023/08/22 10:18:44;;;;;;;0.70;0.50;;;25.70;54.80;;;;;;5047685;28;20056;-67
2023/08/22 10:21:10;;;;;;;1.95;0.60;;;25.80;54.40;;;;;;5036870;28;20037;-67
2023/08/22 10:23:58;;;;;;;1.85;0.75;;;25.90;54.10;;;;;;5012341;28;20535;-66
2023/08/22 10:26:28;;;;;;;1.10;0.68;;;25.90;53.60;;;;;;5038730;28;20045;-65
2023/08/22 10:29:13;;;;;;;2.05;0.80;;;25.80;54.60;;;;;;5027746;28;20057;-67
2023/08/22 10:32:00;;;;;;;1.98;1.00;;;25.70;54.10;;;;;;5030574;28;20147;-67
2023/08/22 10:34:38;;;;;;;3.28;0.90;;;25.80;54.90;;;;;;5034897;28;20049;-67
2023/08/22 10:37:05;;;;;;;3.95;1.20;;;25.90;55.40;;;;;;5050926;28;20033;-66
2023/08/22 10:39:49;;;;;;;2.63;0.93;;;25.90;54.80;;;;;;5044156;28;20358;-67
2023/08/22 10:42:25;;;;;;;2.47;1.05;;;26.10;53.90;;;;;;5027181;28;20041;-66
2023/08/22 10:44:50;;;;;;;2.58;0.70;;;26.20;54.40;;;;;;5035040;28;20681;-67
2023/08/22 10:47:18;;;;;;;1.83;1.15;;;26.10;54.30;;;;;;5044543;28;20044;-67
2023/08/22 10:49:48;;;;;;;2.20;1.55;;;26.10;54.30;;;;;;5049455;28;20508;-66
2023/08/22 10:52:14;;;;;;;2.13;1.75;;;25.80;53.70;;;;;;5031387;28;20049;-66
2023/08/22 10:55:00;;;;;;;3.95;1.48;;;25.70;54.10;;;;;;5037697;28;20041;-67
2023/08/22 10:57:27;;;;;;;2.08;1.20;;;25.50;51.70;;;;;;5032177;28;20123;-66
2023/08/22 10:59:59;;;;;;;2.22;1.30;;;25.50;53.60;;;;;;5032696;28;20076;-66
2023/08/22 11:02:35;;;;;;;2.45;1.38;;;25.30;53.90;;;;;;5035860;28;20059;-66
2023/08/22 11:05:11;;;;;;;1.77;1.40;;;25.40;55.20;;;;;;5044019;28;20045;-67
2023/08/22 11:07:41;;;;;;;2.15;1.30;;;25.40;55.00;;;;;;5044631;28;20376;-68
2023/08/22 11:10:13;;;;;;;1.73;1.10;;;25.50;54.20;;;;;;5024791;28;20086;-67
2023/08/22 11:12:39;;;;;;;2.97;1.42;;;25.50;54.40;;;;;;5041263;28;20036;-67
2023/08/22 11:15:05;;;;;;;2.28;1.42;;;25.50;54.10;;;;;;5032761;28;20049;-66
2023/08/22 11:17:31;;;;;;;1.70;1.15;;;25.40;54.20;;;;;;5041832;28;20044;-66
2023/08/22 11:20:00;;;;;;;2.58;1.30;;;25.50;54.20;;;;;;5033826;28;20029;-67
2023/08/22 11:22:25;;;;;;;1.30;0.80;;;25.70;54.00;;;;;;5038544;28;20037;-66
2023/08/22 11:24:52;;;;;;;2.85;1.10;;;25.50;53.50;;;;;;5026552;28;20044;-68
2023/08/22 11:27:18;;;;;;;2.00;1.08;;;25.60;54.20;;;;;;5038102;28;20114;-67
2023/08/22 11:29:52;;;;;;;3.45;0.90;;;25.70;53.20;;;;;;5045073;28;20047;-66
2023/08/22 11:32:26;;;;;;;3.00;1.00;;;25.80;53.70;;;;;;5042536;28;20041;-67
2023/08/22 11:35:03;;;;;;;2.88;1.10;;;25.80;55.10;;;;;;5047739;28;20045;-68
2023/08/22 11:37:37;;;;;;;3.30;1.75;;;25.80;54.40;;;;;;5047785;28;20468;-67
2023/08/22 11:40:05;;;;;;;2.65;1.10;;;25.70;54.00;;;;;;5039449;28;20049;-67
2023/08/22 11:42:33;;;;;;;1.70;0.90;;;25.80;54.20;;;;;;5038340;28;20376;-67
2023/08/22 11:45:04;;;;;;;1.77;0.93;;;25.80;53.50;;;;;;5036088;28;20037;-67
2023/08/22 11:47:50;;;;;;;1.13;0.68;;;25.90;53.10;;;;;;5027625;28;20136;-67
2023/08/22 11:50:22;;;;;;;1.63;0.60;;;25.70;52.20;;;;;;5033400;28;20041;-67
2023/08/22 11:52:51;;;;;;;2.05;1.02;;;25.80;51.40;;;;;;5043643;28;20087;-67
2023/08/22 11:55:25;;;;;;;0.80;0.70;;;26.00;51.80;;;;;;5021029;28;20044;-67
2023/08/22 11:57:55;;;;;;;1.92;0.70;;;25.90;50.90;;;;;;5033238;28;20084;-68
2023/08/22 12:00:21;;;;;;;1.27;0.70;;;25.80;51.40;;;;;;5045972;28;20508;-67
2023/08/22 12:02:51;;;;;;;0.88;0.68;;;25.90;52.60;;;;;;5048998;28;20037;-67
2023/08/22 12:05:30;;;;;;;1.05;0.68;;;25.90;51.40;;;;;;5035902;28;20458;-68
2023/08/22 12:07:57;;;;;;;1.10;0.63;;;25.80;49.70;;;;;;5045361;28;20041;-68
2023/08/22 12:10:23;;;;;;;2.55;1.10;;;25.90;51.80;;;;;;5039987;28;20054;-68
2023/08/22 12:12:48;;;;;;;2.78;0.75;;;26.00;51.80;;;;;;5033668;28;20095;-67
2023/08/22 12:15:14;;;;;;;1.83;0.57;;;26.10;51.80;;;;;;5049557;28;20041;-67
2023/08/22 12:17:39;;;;;;;3.30;0.68;;;26.20;51.40;;;;;;5042919;28;20041;-67
2023/08/22 12:20:05;;;;;;;1.17;0.50;;;26.30;50.90;;;;;;5043002;28;20041;-66
2023/08/22 12:22:31;;;;;;;2.25;0.52;;;26.40;50.60;;;;;;5017551;28;20059;-67
2023/08/22 12:24:57;;;;;;;1.27;0.40;;;26.60;50.50;;;;;;5032850;28;20037;-68
2023/08/22 12:27:22;;;;;;;1.50;0.45;;;26.60;49.50;;;;;;5044243;28;20045;-67
2023/08/22 12:29:49;;;;;;;1.35;0.65;;;26.80;49.80;;;;;;5045092;28;20088;-69
2023/08/22 12:32:14;;;;;;;3.00;0.70;;;26.70;49.70;;;;;;5048457;28;20049;-68
2023/08/22 12:34:40;;;;;;;2.00;0.50;;;26.80;49.50;;;;;;5032490;28;20382;-67
2023/08/22 12:37:05;;;;;;;3.33;0.80;;;27.10;49.30;;;;;;5046131;28;20323;-67
2023/08/22 12:39:31;;;;;;;1.88;0.65;;;27.60;48.70;;;;;;5039653;28;20038;-68
2023/08/22 12:41:57;;;;;;;1.50;0.75;;;27.90;47.80;;;;;;5029295;28;20366;-67
2023/08/22 12:44:23;;;;;;;2.47;0.85;;;28.00;46.80;;;;;;5038443;28;20413;-67
2023/08/22 12:46:49;;;;;;;2.38;0.68;;;28.00;47.00;;;;;;5045861;28;20041;-68